Time;durP1;ratioP1;P1;durP2;ratioP2;P2;SDS_P1;SDS_P2;PMS_P1;PMS_P2;Temp;Humidity;BMP_temperature;BMP_pressure;BME280_temperature;BME280_humidity;BME280_pressure;Samples;Min_cycle;Max_cycle;Signal;HPM_P1;HPM_P2
2024/01/08 00:01:33;;;;;;;20.65;12.18;;;;;;;;;;5057072;28;20029;-63
2024/01/08 00:03:59;;;;;;;26.58;14.40;;;;;;;;;;5074984;28;20062;-63
2024/01/08 00:06:24;;;;;;;17.10;12.85;;;;;;;;;;5074376;28;20039;-63
2024/01/08 00:08:49;;;;;;;23.40;17.80;;;;;;;;;;5074160;28;20104;-63
2024/01/08 00:11:15;;;;;;;20.33;15.57;;;;;;;;;;5056395;28;20374;-63
2024/01/08 00:13:40;;;;;;;16.50;14.05;;;;;;;;;;5056442;28;20028;-64
2024/01/08 00:16:06;;;;;;;17.88;12.07;;;;;;;;;;5074686;28;20545;-64
2024/01/08 00:18:32;;;;;;;14.15;10.20;;;;;;;;;;5074827;28;20021;-65
2024/01/08 00:20:59;;;;;;;17.83;12.32;;;;;;;;;;5056619;28;20021;-65
2024/01/08 00:23:24;;;;;;;16.73;10.77;;;;;;;;;;5039844;28;20497;-65
2024/01/08 00:25:50;;;;;;;17.02;10.75;;;;;;;;;;5074652;28;20041;-65
2024/01/08 00:28:15;;;;;;;14.15;10.77;;;;;;;;;;5074681;28;20099;-65
2024/01/08 00:30:40;;;;;;;12.20;9.13;;;;;;;;;;5074652;28;20478;-65
2024/01/08 00:33:07;;;;;;;16.25;10.63;;;;;;;;;;5074207;28;20030;-64
2024/01/08 00:35:32;;;;;;;16.00;10.25;;;;;;;;;;5075547;28;20580;-64
2024/01/08 00:37:57;;;;;;;17.00;10.27;;;;;;;;;;5057341;28;20025;-64
2024/01/08 00:40:23;;;;;;;16.65;11.30;;;;;;;;;;5075054;28;20442;-64
2024/01/08 00:42:48;;;;;;;21.95;14.40;;;;;;;;;;5074619;28;20043;-64
2024/01/08 00:45:14;;;;;;;16.75;11.38;;;;;;;;;;5056809;28;20382;-65
2024/01/08 00:47:40;;;;;;;14.50;10.23;;;;;;;;;;5075251;28;20036;-65
2024/01/08 00:50:05;;;;;;;16.13;10.65;;;;;;;;;;5074867;28;20021;-64
2024/01/08 00:52:31;;;;;;;19.10;12.38;;;;;;;;;;5074183;28;20043;-64
2024/01/08 00:55:01;;;;;;;19.25;11.50;;;;;;;;;;5074518;28;20490;-64
2024/01/08 00:57:26;;;;;;;;;;;;;;;;;;5074986;28;20112;-70
2024/01/08 00:59:52;;;;;;;14.18;9.85;;;;;;;;;;5074952;28;19960;-65
2024/01/08 01:02:17;;;;;;;15.52;11.63;;;;;;;;;;5074647;28;20119;-66
2024/01/08 01:04:43;;;;;;;17.95;11.38;;;;;;;;;;5074617;28;20151;-65
2024/01/08 01:07:10;;;;;;;22.33;13.55;;;;;;;;;;5075183;28;20356;-65
2024/01/08 01:09:35;;;;;;;15.75;9.90;;;;;;;;;;5056763;28;20085;-64
2024/01/08 01:12:01;;;;;;;14.70;9.73;;;;;;;;;;5056270;28;20062;-67
2024/01/08 01:14:27;;;;;;;17.15;12.10;;;;;;;;;;5074481;28;20025;-64
2024/01/08 01:16:53;;;;;;;31.20;20.05;;;;;;;;;;5074137;28;20086;-64
2024/01/08 01:19:19;;;;;;;36.63;21.48;;;;;;;;;;5074134;28;20009;-64
2024/01/08 01:21:44;;;;;;;32.45;19.13;;;;;;;;;;5074178;28;20421;-64
2024/01/08 01:24:10;;;;;;;42.67;23.67;;;;;;;;;;5074294;28;20364;-63
2024/01/08 01:26:35;;;;;;;28.35;15.40;;;;;;;;;;5074458;28;20470;-63
2024/01/08 01:29:00;;;;;;;110.45;52.38;;;;;;;;;;5073935;28;20474;-63
2024/01/08 01:31:26;;;;;;;36.75;18.55;;;;;;;;;;5073950;28;20394;-64
2024/01/08 01:33:52;;;;;;;52.00;27.08;;;;;;;;;;5074153;28;20257;-63
2024/01/08 01:36:17;;;;;;;60.70;30.23;;;;;;;;;;5074403;28;20024;-63
2024/01/08 01:38:43;;;;;;;40.10;22.65;;;;;;;;;;5074523;28;20036;-63
2024/01/08 01:41:08;;;;;;;30.98;16.58;;;;;;;;;;5073744;28;20024;-63
2024/01/08 01:43:33;;;;;;;54.95;27.15;;;;;;;;;;5073723;28;20055;-63
2024/01/08 01:46:04;;;;;;;18.63;11.95;;;;;;;;;;5074346;28;20032;-63
2024/01/08 01:48:29;;;;;;;20.50;12.82;;;;;;;;;;5074048;28;20386;-63
2024/01/08 01:50:55;;;;;;;38.28;24.42;;;;;;;;;;5055923;28;20032;-63
2024/01/08 01:53:21;;;;;;;33.35;22.98;;;;;;;;;;5087435;22;20062;-63
2024/01/08 01:55:47;;;;;;;14.32;9.50;;;;;;;;;;5055708;28;20032;-64
2024/01/08 01:58:14;;;;;;;14.27;10.63;;;;;;;;;;5056167;28;20463;-64
2024/01/08 02:00:39;;;;;;;24.38;15.57;;;;;;;;;;5074045;28;20016;-64
2024/01/08 02:03:06;;;;;;;14.73;9.95;;;;;;;;;;5054495;28;20351;-65
2024/01/08 02:05:32;;;;;;;19.80;13.65;;;;;;;;;;5071826;28;20530;-73
2024/01/08 02:07:58;;;;;;;19.67;12.55;;;;;;;;;;5071980;28;20028;-74
2024/01/08 02:10:24;;;;;;;19.23;13.13;;;;;;;;;;5054146;28;20028;-73
2024/01/08 02:12:50;;;;;;;14.68;11.65;;;;;;;;;;5071688;28;20027;-74
2024/01/08 02:15:15;;;;;;;17.02;12.00;;;;;;;;;;5053494;28;20029;-72
2024/01/08 02:17:41;;;;;;;15.35;11.32;;;;;;;;;;5071747;28;20526;-71
2024/01/08 02:20:07;;;;;;;16.40;10.90;;;;;;;;;;5071861;28;20028;-71
2024/01/08 02:22:36;;;;;;;16.00;12.18;;;;;;;;;;5071890;28;20024;-72
2024/01/08 02:25:01;;;;;;;17.27;10.13;;;;;;;;;;5054337;28;20028;-71
2024/01/08 02:27:27;;;;;;;15.98;11.15;;;;;;;;;;5053664;28;20597;-72
2024/01/08 02:29:52;;;;;;;23.52;13.70;;;;;;;;;;5072009;28;20044;-72
2024/01/08 02:32:17;;;;;;;15.75;10.13;;;;;;;;;;5072560;28;20037;-64
2024/01/08 02:34:43;;;;;;;16.05;11.43;;;;;;;;;;5037922;28;20490;-64
2024/01/08 02:37:08;;;;;;;18.60;12.13;;;;;;;;;;5072627;28;20029;-64
2024/01/08 02:39:34;;;;;;;18.20;11.20;;;;;;;;;;5021494;28;20044;-63
2024/01/08 02:41:59;;;;;;;16.55;11.50;;;;;;;;;;5055184;28;20016;-63
2024/01/08 02:44:25;;;;;;;15.32;10.77;;;;;;;;;;5073929;28;20024;-64
2024/01/08 02:46:50;;;;;;;16.58;11.48;;;;;;;;;;5056005;28;20082;-63
2024/01/08 02:49:16;;;;;;;18.25;11.90;;;;;;;;;;5073515;28;20052;-63
2024/01/08 02:51:41;;;;;;;21.50;13.48;;;;;;;;;;5085315;22;20056;-72
2024/01/08 02:57:20;;;;;;;18.08;12.93;;;;;;;;;;5010482;28;20388;-73
2024/01/08 02:59:45;;;;;;;16.63;13.05;;;;;;;;;;5011487;28;20022;-73
2024/01/08 03:02:11;;;;;;;16.73;12.15;;;;;;;;;;4995550;28;20426;-73
2024/01/08 03:04:37;;;;;;;18.30;11.95;;;;;;;;;;5012145;28;20036;-73
2024/01/08 03:07:02;;;;;;;16.33;11.95;;;;;;;;;;5012028;28;20029;-73
2024/01/08 03:09:28;;;;;;;16.58;12.50;;;;;;;;;;5013860;28;20030;-74
2024/01/08 03:11:53;;;;;;;17.15;11.38;;;;;;;;;;5013212;28;20034;-74
2024/01/08 03:14:18;;;;;;;16.90;11.20;;;;;;;;;;5012558;28;20081;-74
2024/01/08 03:16:44;;;;;;;17.65;11.45;;;;;;;;;;5016787;28;20041;-74
2024/01/08 03:19:09;;;;;;;15.88;11.10;;;;;;;;;;5016721;28;20029;-73
2024/01/08 03:21:35;;;;;;;16.58;11.23;;;;;;;;;;5016632;28;20384;-73
2024/01/08 03:24:00;;;;;;;16.83;9.77;;;;;;;;;;5015500;28;20057;-73
2024/01/08 03:26:25;;;;;;;17.23;11.48;;;;;;;;;;5016575;28;20049;-73
2024/01/08 03:28:51;;;;;;;18.55;11.00;;;;;;;;;;5016623;28;20034;-73
2024/01/08 03:31:16;;;;;;;17.02;10.93;;;;;;;;;;5015547;28;20069;-74
2024/01/08 03:33:42;;;;;;;16.98;11.75;;;;;;;;;;5015830;28;20022;-73
2024/01/08 03:36:11;;;;;;;14.73;9.73;;;;;;;;;;5013633;28;20464;-73
2024/01/08 03:38:37;;;;;;;18.17;10.55;;;;;;;;;;5016341;28;20084;-73
2024/01/08 03:41:03;;;;;;;15.35;11.68;;;;;;;;;;5016128;28;20026;-72
2024/01/08 03:43:29;;;;;;;17.40;11.35;;;;;;;;;;5015774;28;20384;-72
2024/01/08 03:45:54;;;;;;;17.83;10.55;;;;;;;;;;5016122;28;20025;-72
2024/01/08 03:48:20;;;;;;;16.65;11.60;;;;;;;;;;4998308;28;20032;-71
2024/01/08 03:50:46;;;;;;;21.40;14.40;;;;;;;;;;5016638;28;20025;-72
2024/01/08 03:53:11;;;;;;;21.83;13.40;;;;;;;;;;5014624;28;20026;-72
2024/01/08 03:55:37;;;;;;;18.55;12.32;;;;;;;;;;5015245;28;20510;-72
2024/01/08 03:58:03;;;;;;;35.85;21.17;;;;;;;;;;5016274;28;20028;-73
2024/01/08 04:00:28;;;;;;;28.70;18.20;;;;;;;;;;5016184;28;20372;-74
2024/01/08 04:02:54;;;;;;;24.13;17.55;;;;;;;;;;5016143;28;20045;-74
2024/01/08 04:05:19;;;;;;;28.35;18.10;;;;;;;;;;5016331;28;20503;-74
2024/01/08 04:07:44;;;;;;;31.40;18.58;;;;;;;;;;5016045;28;20048;-74
2024/01/08 04:10:10;;;;;;;19.80;12.73;;;;;;;;;;5015687;28;20116;-74
2024/01/08 04:12:35;;;;;;;24.08;14.70;;;;;;;;;;4998524;28;20064;-74
2024/01/08 04:15:02;;;;;;;37.33;21.52;;;;;;;;;;5057082;22;20044;-64
2024/01/08 04:17:28;;;;;;;22.02;14.63;;;;;;;;;;5074979;28;20526;-64
2024/01/08 04:19:53;;;;;;;40.80;24.17;;;;;;;;;;5075296;28;20060;-64
2024/01/08 04:22:19;;;;;;;18.92;12.38;;;;;;;;;;5057435;28;20119;-65
2024/01/08 04:24:44;;;;;;;26.98;16.17;;;;;;;;;;5089139;22;20052;-75
2024/01/08 04:27:09;;;;;;;26.33;17.33;;;;;;;;;;5101787;22;20052;-75
2024/01/08 04:29:35;;;;;;;23.13;14.52;;;;;;;;;;5074294;28;20102;-65
2024/01/08 04:32:01;;;;;;;17.02;13.27;;;;;;;;;;5075802;28;20031;-65
2024/01/08 04:34:26;;;;;;;23.00;13.23;;;;;;;;;;5074818;28;20429;-66
2024/01/08 04:36:52;;;;;;;18.25;13.57;;;;;;;;;;5075285;28;20028;-68
2024/01/08 04:39:17;;;;;;;32.47;20.75;;;;;;;;;;5057095;28;20020;-68
2024/01/08 04:41:42;;;;;;;19.58;13.40;;;;;;;;;;5074240;28;20124;-64
2024/01/08 04:44:09;;;;;;;30.77;18.30;;;;;;;;;;5073712;28;20032;-64
2024/01/08 04:46:35;;;;;;;25.25;15.77;;;;;;;;;;5073841;28;20039;-65
2024/01/08 04:49:02;;;;;;;23.00;15.05;;;;;;;;;;5055812;28;20029;-66
2024/01/08 04:51:27;;;;;;;20.83;14.52;;;;;;;;;;5073954;28;20013;-64
2024/01/08 04:53:52;;;;;;;19.20;11.75;;;;;;;;;;5055070;28;20029;-64
2024/01/08 04:56:22;;;;;;;16.63;12.10;;;;;;;;;;5055459;28;20016;-65
2024/01/08 04:58:47;;;;;;;16.85;11.77;;;;;;;;;;5055793;28;20340;-65
2024/01/08 05:01:18;;;;;;;17.65;12.18;;;;;;;;;;5101434;23;20072;-66
2024/01/08 05:03:43;;;;;;;22.63;14.48;;;;;;;;;;5073895;28;20111;-66
2024/01/08 05:06:20;;;;;;;21.98;13.52;;;;;;;;;;5073728;28;20067;-67
2024/01/08 05:08:45;;;;;;;20.05;13.23;;;;;;;;;;5074092;28;20036;-68
2024/01/08 05:11:19;;;;;;;19.05;14.07;;;;;;;;;;5074355;28;20043;-67
2024/01/08 05:13:44;;;;;;;18.13;12.43;;;;;;;;;;5055726;28;20037;-65
2024/01/08 05:16:11;;;;;;;18.85;14.05;;;;;;;;;;5074128;28;20027;-70
2024/01/08 05:18:36;;;;;;;20.10;12.23;;;;;;;;;;5073308;28;20373;-70
2024/01/08 05:21:02;;;;;;;18.30;11.98;;;;;;;;;;5054753;28;20095;-70
2024/01/08 05:23:28;;;;;;;16.40;11.55;;;;;;;;;;5054656;28;20052;-70
2024/01/08 05:25:58;;;;;;;25.58;16.65;;;;;;;;;;5073039;28;20017;-70
2024/01/08 05:28:25;;;;;;;26.65;16.67;;;;;;;;;;5074287;28;20032;-70
2024/01/08 05:30:50;;;;;;;37.08;20.73;;;;;;;;;;5074025;28;20048;-70
2024/01/08 05:33:15;;;;;;;79.57;41.22;;;;;;;;;;5073666;28;20473;-71
2024/01/08 05:35:41;;;;;;;78.75;34.95;;;;;;;;;;5074113;28;20037;-69
2024/01/08 05:38:07;;;;;;;42.38;21.85;;;;;;;;;;5073668;28;20374;-68
2024/01/08 05:40:32;;;;;;;63.67;32.58;;;;;;;;;;5073930;28;20028;-69
2024/01/08 05:42:58;;;;;;;36.30;22.38;;;;;;;;;;5073860;28;20477;-69
2024/01/08 05:45:23;;;;;;;48.38;24.98;;;;;;;;;;5055911;28;20024;-68
2024/01/08 05:47:50;;;;;;;31.25;22.10;;;;;;;;;;5073787;28;20111;-70
2024/01/08 05:50:16;;;;;;;19.50;13.73;;;;;;;;;;5073719;28;20024;-69
2024/01/08 05:52:44;;;;;;;38.17;29.50;;;;;;;;;;5073649;28;20115;-69
2024/01/08 05:55:13;;;;;;;28.40;15.68;;;;;;;;;;5073684;28;20020;-69
2024/01/08 05:57:38;;;;;;;46.00;22.85;;;;;;;;;;5073519;28;20024;-69
2024/01/08 06:00:04;;;;;;;22.67;13.82;;;;;;;;;;5074324;28;20028;-69
2024/01/08 06:02:32;;;;;;;26.38;16.83;;;;;;;;;;5074123;28;20029;-70
2024/01/08 06:05:07;;;;;;;29.20;17.77;;;;;;;;;;5073559;28;20036;-68
2024/01/08 06:07:33;;;;;;;61.78;30.25;;;;;;;;;;5073780;28;20458;-68
2024/01/08 06:10:00;;;;;;;101.47;47.90;;;;;;;;;;5073720;28;20021;-69
2024/01/08 06:12:26;;;;;;;61.47;26.88;;;;;;;;;;5055426;28;20374;-68
2024/01/08 06:14:53;;;;;;;48.00;22.73;;;;;;;;;;5073179;28;20508;-69
2024/01/08 06:17:19;;;;;;;55.03;24.95;;;;;;;;;;5073263;28;20099;-68
2024/01/08 06:19:44;;;;;;;42.17;20.45;;;;;;;;;;5072744;28;20056;-69
2024/01/08 06:22:09;;;;;;;28.63;17.30;;;;;;;;;;5073392;28;20078;-68
2024/01/08 06:24:35;;;;;;;143.73;75.60;;;;;;;;;;5073579;28;20082;-69
2024/01/08 06:27:00;;;;;;;60.55;33.08;;;;;;;;;;5073090;28;20092;-69
2024/01/08 06:29:26;;;;;;;44.47;26.55;;;;;;;;;;5070978;28;20047;-67
2024/01/08 06:31:51;;;;;;;40.13;22.90;;;;;;;;;;5053739;28;20393;-68
2024/01/08 06:34:17;;;;;;;33.33;17.63;;;;;;;;;;5071920;28;20078;-68
2024/01/08 06:36:42;;;;;;;65.75;32.63;;;;;;;;;;5071913;28;20523;-62
2024/01/08 06:39:11;;;;;;;55.13;31.02;;;;;;;;;;5071975;28;20036;-61
2024/01/08 06:41:37;;;;;;;51.70;32.47;;;;;;;;;;5071630;28;20099;-61
2024/01/08 06:44:03;;;;;;;39.25;24.98;;;;;;;;;;5071695;28;20452;-62
2024/01/08 06:46:28;;;;;;;25.52;17.40;;;;;;;;;;5071947;28;20026;-62
2024/01/08 06:48:54;;;;;;;27.92;20.55;;;;;;;;;;5072008;28;20059;-62
2024/01/08 06:51:20;;;;;;;46.55;28.73;;;;;;;;;;5075678;28;20033;-69
2024/01/08 06:53:47;;;;;;;53.70;32.35;;;;;;;;;;5075682;28;20026;-69
2024/01/08 06:56:12;;;;;;;89.15;37.22;;;;;;;;;;5076381;28;20017;-69
2024/01/08 06:58:38;;;;;;;90.22;35.67;;;;;;;;;;5058847;28;20024;-69
2024/01/08 07:01:05;;;;;;;68.22;27.52;;;;;;;;;;5076860;28;20033;-69
2024/01/08 07:03:30;;;;;;;43.97;22.48;;;;;;;;;;5077034;28;20036;-68
2024/01/08 07:05:56;;;;;;;47.15;25.95;;;;;;;;;;5058769;28;20493;-69
2024/01/08 07:08:21;;;;;;;37.67;21.63;;;;;;;;;;5076933;28;20115;-69
2024/01/08 07:10:47;;;;;;;21.85;15.02;;;;;;;;;;5042098;28;20082;-69
2024/01/08 07:13:14;;;;;;;22.88;15.27;;;;;;;;;;5076540;28;20381;-68
2024/01/08 07:15:44;;;;;;;23.05;15.70;;;;;;;;;;5076761;28;20512;-69
2024/01/08 07:18:10;;;;;;;27.63;17.83;;;;;;;;;;5058589;28;20040;-69
2024/01/08 07:20:42;;;;;;;18.27;12.52;;;;;;;;;;5076603;28;20025;-67
2024/01/08 07:23:11;;;;;;;20.10;13.98;;;;;;;;;;5076692;28;20415;-69
2024/01/08 07:25:37;;;;;;;16.88;13.00;;;;;;;;;;5076319;28;20530;-69
2024/01/08 07:28:04;;;;;;;21.50;14.57;;;;;;;;;;5076578;28;20462;-69
2024/01/08 07:30:30;;;;;;;71.70;29.27;;;;;;;;;;5076430;28;20358;-69
2024/01/08 07:32:56;;;;;;;32.63;21.40;;;;;;;;;;5076193;28;20142;-69
2024/01/08 07:35:22;;;;;;;29.58;18.38;;;;;;;;;;5076649;28;20025;-69
2024/01/08 07:43:38;;;;;;;21.45;16.13;;;;;;;;;;5074894;22;19942;-62
2024/01/08 07:46:03;;;;;;;19.77;14.30;;;;;;;;;;4975122;28;20049;-69
2024/01/08 07:48:28;;;;;;;15.43;12.02;;;;;;;;;;4959831;28;20031;-69
2024/01/08 07:50:55;;;;;;;16.75;12.63;;;;;;;;;;4977129;28;20019;-69
2024/01/08 07:53:20;;;;;;;21.38;14.57;;;;;;;;;;4976580;28;20022;-69
2024/01/08 07:55:46;;;;;;;25.70;16.88;;;;;;;;;;4976940;28;20035;-69
2024/01/08 07:58:14;;;;;;;19.05;13.02;;;;;;;;;;4977309;28;20054;-69
2024/01/08 08:00:40;;;;;;;25.58;16.98;;;;;;;;;;4977168;28;20031;-69
2024/01/08 08:03:07;;;;;;;45.22;28.25;;;;;;;;;;4977166;28;20039;-69
2024/01/08 08:05:32;;;;;;;19.95;13.50;;;;;;;;;;4977081;28;20357;-69
2024/01/08 08:07:58;;;;;;;15.95;11.88;;;;;;;;;;4975659;28;20098;-69
2024/01/08 08:10:23;;;;;;;17.15;11.88;;;;;;;;;;4977022;28;20476;-69
2024/01/08 08:12:51;;;;;;;19.83;14.93;;;;;;;;;;4976731;28;20477;-69
2024/01/08 08:15:17;;;;;;;19.38;13.07;;;;;;;;;;4959285;28;20031;-69
2024/01/08 08:17:42;;;;;;;57.63;28.52;;;;;;;;;;4959365;28;20054;-69
2024/01/08 08:20:10;;;;;;;44.33;23.65;;;;;;;;;;4975296;28;20066;-69
2024/01/08 08:22:36;;;;;;;46.92;23.75;;;;;;;;;;4977013;28;20023;-68
2024/01/08 08:25:02;;;;;;;18.15;13.82;;;;;;;;;;4977169;28;20093;-69
2024/01/08 08:27:28;;;;;;;30.42;20.33;;;;;;;;;;4975265;28;20043;-68
2024/01/08 08:29:54;;;;;;;25.02;18.58;;;;;;;;;;4976851;28;20047;-69
2024/01/08 08:32:19;;;;;;;20.63;13.90;;;;;;;;;;4977147;28;20035;-68
2024/01/08 08:34:45;;;;;;;20.63;14.30;;;;;;;;;;4976272;28;20049;-70
2024/01/08 08:37:11;;;;;;;21.70;14.23;;;;;;;;;;4976281;28;20106;-69
2024/01/08 08:39:37;;;;;;;21.48;15.35;;;;;;;;;;4976419;28;20037;-70
2024/01/08 08:42:08;;;;;;;18.33;14.02;;;;;;;;;;4976668;28;20027;-69
2024/01/08 08:44:34;;;;;;;27.08;17.00;;;;;;;;;;4976148;28;20054;-69
2024/01/08 08:47:02;;;;;;;44.30;31.48;;;;;;;;;;4975969;28;20050;-69
2024/01/08 08:49:27;;;;;;;28.02;18.30;;;;;;;;;;4976049;28;20464;-68
2024/01/08 08:51:53;;;;;;;46.45;27.65;;;;;;;;;;4976010;28;20034;-69
2024/01/08 08:54:18;;;;;;;45.05;26.92;;;;;;;;;;4976186;28;20031;-69
2024/01/08 08:56:43;;;;;;;17.90;14.27;;;;;;;;;;4975021;28;20085;-69
2024/01/08 08:59:09;;;;;;;53.65;41.75;;;;;;;;;;5036818;22;20044;-62
2024/01/08 09:01:34;;;;;;;37.72;24.90;;;;;;;;;;5073958;28;20025;-68
2024/01/08 09:04:00;;;;;;;21.73;15.50;;;;;;;;;;5074826;28;20045;-69
2024/01/08 09:06:30;;;;;;;22.83;17.50;;;;;;;;;;5074725;28;20037;-70
2024/01/08 09:09:02;;;;;;;87.75;66.00;;;;;;;;;;5090724;22;20033;-70
2024/01/08 09:11:28;;;;;;;21.63;17.92;;;;;;;;;;5045008;23;20388;-70
2024/01/08 09:13:54;;;;;;;36.15;20.42;;;;;;;;;;5033907;28;20120;-69
2024/01/08 09:16:26;;;;;;;46.88;30.30;;;;;;;;;;5016528;28;20025;-69
2024/01/08 09:18:58;;;;;;;39.38;20.17;;;;;;;;;;5034150;28;20482;-71
2024/01/08 09:21:24;;;;;;;19.50;12.65;;;;;;;;;;5016165;28;20044;-69
2024/01/08 09:23:49;;;;;;;39.38;22.88;;;;;;;;;;5034777;28;20037;-70
2024/01/08 09:26:15;;;;;;;18.52;13.57;;;;;;;;;;5034379;28;20038;-61
2024/01/08 09:28:41;;;;;;;17.00;12.45;;;;;;;;;;5034681;28;20034;-63
2024/01/08 09:31:07;;;;;;;25.70;16.15;;;;;;;;;;5034717;28;20060;-62
2024/01/08 09:33:32;;;;;;;21.15;15.18;;;;;;;;;;5080849;22;20064;-69
2024/01/08 09:35:57;;;;;;;41.95;25.30;;;;;;;;;;5073498;28;20032;-68
2024/01/08 09:38:23;;;;;;;26.70;18.67;;;;;;;;;;5074084;28;20038;-69
2024/01/08 09:40:48;;;;;;;18.88;13.63;;;;;;;;;;5073985;28;20055;-70
2024/01/08 09:43:19;;;;;;;17.63;13.52;;;;;;;;;;5056143;28;20024;-69
2024/01/08 09:45:47;;;;;;;33.45;27.17;;;;;;;;;;5055775;28;20476;-69
2024/01/08 09:48:12;;;;;;;18.48;13.30;;;;;;;;;;5073927;28;20112;-69
2024/01/08 09:50:38;;;;;;;20.92;16.80;;;;;;;;;;5073738;28;20056;-68
2024/01/08 09:53:04;;;;;;;27.10;21.55;;;;;;;;;;5056597;28;20040;-68
2024/01/08 09:55:30;;;;;;;16.95;14.52;;;;;;;;;;5055660;28;20036;-69
2024/01/08 09:57:55;;;;;;;20.42;14.85;;;;;;;;;;5073637;28;20102;-62
2024/01/08 10:00:21;;;;;;;21.35;15.48;;;;;;;;;;5074241;28;20458;-63
2024/01/08 10:02:53;;;;;;;22.52;16.48;;;;;;;;;;5055512;28;20036;-61
2024/01/08 10:05:19;;;;;;;23.27;17.80;;;;;;;;;;5055655;28;20446;-61
2024/01/08 10:07:45;;;;;;;31.73;18.98;;;;;;;;;;5073554;28;20040;-61
2024/01/08 10:10:10;;;;;;;30.00;19.95;;;;;;;;;;5055673;28;20032;-61
2024/01/08 10:12:37;;;;;;;38.78;30.38;;;;;;;;;;5074105;28;20029;-61
2024/01/08 10:15:06;;;;;;;24.90;15.90;;;;;;;;;;5073283;28;20378;-62
2024/01/08 10:17:31;;;;;;;32.45;19.67;;;;;;;;;;5074143;28;20017;-61
2024/01/08 10:20:07;;;;;;;48.33;25.90;;;;;;;;;;5073668;28;20447;-61
2024/01/08 10:22:32;;;;;;;109.35;47.22;;;;;;;;;;5073382;28;20028;-62
2024/01/08 10:25:01;;;;;;;34.33;25.42;;;;;;;;;;5057912;28;20013;-63
2024/01/08 10:27:26;;;;;;;46.97;31.80;;;;;;;;;;5077808;28;20097;-69
2024/01/08 10:29:52;;;;;;;32.65;21.40;;;;;;;;;;5077730;28;20029;-68
2024/01/08 10:32:17;;;;;;;46.85;28.52;;;;;;;;;;5077413;28;20055;-68
2024/01/08 10:34:44;;;;;;;58.40;33.90;;;;;;;;;;5077673;28;20021;-69
2024/01/08 10:37:10;;;;;;;24.75;18.85;;;;;;;;;;5077689;28;20469;-69
2024/01/08 10:39:36;;;;;;;242.38;136.27;;;;;;;;;;5059824;28;20064;-68
2024/01/08 10:42:02;;;;;;;69.18;40.08;;;;;;;;;;5059335;28;20064;-68
2024/01/08 10:44:28;;;;;;;54.92;37.42;;;;;;;;;;5077434;28;20029;-68
2024/01/08 10:46:57;;;;;;;59.15;39.17;;;;;;;;;;5059207;28;20525;-69
2024/01/08 10:49:32;;;;;;;37.00;28.00;;;;;;;;;;5090628;22;20092;-69
2024/01/08 10:51:59;;;;;;;33.92;23.70;;;;;;;;;;5076651;28;20027;-68
2024/01/08 10:54:27;;;;;;;31.38;21.38;;;;;;;;;;5042175;28;20036;-69
2024/01/08 10:56:54;;;;;;;46.78;26.48;;;;;;;;;;5058954;28;20026;-70
2024/01/08 10:59:22;;;;;;;29.60;17.23;;;;;;;;;;5076796;28;20103;-69
2024/01/08 11:01:49;;;;;;;27.65;16.48;;;;;;;;;;5077515;28;20035;-69
2024/01/08 11:04:15;;;;;;;26.85;19.52;;;;;;;;;;5076739;28;20032;-67
2024/01/08 11:06:42;;;;;;;49.42;34.47;;;;;;;;;;5076757;28;20385;-69
2024/01/08 11:09:26;;;;;;;31.92;23.40;;;;;;;;;;5076882;28;20025;-68
2024/01/08 11:11:51;;;;;;;37.58;26.08;;;;;;;;;;5076621;28;20035;-69
2024/01/08 11:14:17;;;;;;;22.02;14.80;;;;;;;;;;5077178;28;20357;-69
2024/01/08 11:16:42;;;;;;;30.77;21.98;;;;;;;;;;5077198;28;20031;-69
2024/01/08 11:21:56;;;;;;;30.17;22.58;;;;;;;;;;5111072;22;20118;-63
2024/01/08 11:24:22;;;;;;;20.38;13.80;;;;;;;;;;5056424;28;20033;-62
2024/01/08 11:26:49;;;;;;;23.50;16.05;;;;;;;;;;5039089;28;20089;-62
2024/01/08 11:29:17;;;;;;;25.08;17.60;;;;;;;;;;5056750;28;20029;-62
2024/01/08 11:31:50;;;;;;;25.55;16.48;;;;;;;;;;5098982;22;20055;-62
2024/01/08 11:34:30;;;;;;;19.35;13.77;;;;;;;;;;5102922;22;20060;-68
2024/01/08 11:37:03;;;;;;;27.52;16.20;;;;;;;;;;5075547;28;20024;-69
2024/01/08 11:39:31;;;;;;;45.50;33.97;;;;;;;;;;5076620;28;20028;-69
2024/01/08 11:41:56;;;;;;;42.80;32.95;;;;;;;;;;5076068;28;20474;-69
2024/01/08 11:44:22;;;;;;;77.28;56.00;;;;;;;;;;5058035;28;20069;-69
2024/01/08 11:46:47;;;;;;;219.95;117.53;;;;;;;;;;5076013;28;20024;-68
2024/01/08 11:49:13;;;;;;;138.95;51.72;;;;;;;;;;5058213;28;20485;-68
2024/01/08 11:51:44;;;;;;;332.60;156.18;;;;;;;;;;5075847;28;20040;-69
2024/01/08 11:54:20;;;;;;;86.10;47.83;;;;;;;;;;5047578;22;20047;-62
2024/01/08 11:56:46;;;;;;;29.27;17.65;;;;;;;;;;5053885;28;20048;-62
2024/01/08 11:59:11;;;;;;;18.90;12.77;;;;;;;;;;5056001;28;20167;-62
2024/01/08 12:01:37;;;;;;;104.05;49.05;;;;;;;;;;5055784;28;20037;-61
2024/01/08 12:04:02;;;;;;;20.80;14.52;;;;;;;;;;5056282;28;20029;-61
2024/01/08 12:06:28;;;;;;;18.77;14.02;;;;;;;;;;5055717;28;20025;-62
2024/01/08 12:08:54;;;;;;;20.88;14.25;;;;;;;;;;5056123;28;20108;-62
2024/01/08 12:11:19;;;;;;;19.58;13.27;;;;;;;;;;5054854;28;20466;-62
2024/01/08 12:13:46;;;;;;;22.75;15.90;;;;;;;;;;5055848;28;20036;-62
2024/01/08 12:16:12;;;;;;;22.48;14.05;;;;;;;;;;5055502;28;20028;-62
2024/01/08 12:18:37;;;;;;;28.35;19.63;;;;;;;;;;5055548;28;20033;-61
2024/01/08 12:21:03;;;;;;;25.25;14.98;;;;;;;;;;5056288;28;20036;-62
2024/01/08 12:23:28;;;;;;;56.13;31.35;;;;;;;;;;5055573;28;20036;-62
2024/01/08 12:25:54;;;;;;;83.00;43.50;;;;;;;;;;5053997;28;20081;-68
2024/01/08 12:28:19;;;;;;;201.32;101.65;;;;;;;;;;5084248;22;20110;-62
2024/01/08 12:30:45;;;;;;;34.35;21.63;;;;;;;;;;5088410;22;20057;-62
2024/01/08 12:33:11;;;;;;;48.85;27.40;;;;;;;;;;5075094;28;20021;-61
2024/01/08 12:35:37;;;;;;;43.67;24.88;;;;;;;;;;5040357;28;20063;-62
2024/01/08 12:38:03;;;;;;;53.20;30.65;;;;;;;;;;5075538;28;20450;-62
2024/01/08 12:40:28;;;;;;;40.83;25.90;;;;;;;;;;5075369;28;20033;-61
2024/01/08 12:42:54;;;;;;;48.58;29.92;;;;;;;;;;5074996;28;20020;-61
2024/01/08 12:45:21;;;;;;;49.60;30.45;;;;;;;;;;5075148;28;20055;-62
2024/01/08 12:47:47;;;;;;;35.38;22.92;;;;;;;;;;5074477;28;20036;-62
2024/01/08 12:50:12;;;;;;;38.95;21.70;;;;;;;;;;5057674;28;20017;-62
2024/01/08 12:52:38;;;;;;;25.63;14.73;;;;;;;;;;5056864;28;20474;-62
2024/01/08 12:55:03;;;;;;;35.20;25.15;;;;;;;;;;5074859;28;20051;-61
2024/01/08 12:57:30;;;;;;;33.45;22.30;;;;;;;;;;5075093;28;20040;-61
2024/01/08 12:59:56;;;;;;;41.75;27.38;;;;;;;;;;5075141;28;20036;-61
2024/01/08 13:02:22;;;;;;;27.92;18.90;;;;;;;;;;5074740;28;20032;-62
2024/01/08 13:04:52;;;;;;;29.23;21.23;;;;;;;;;;5100967;22;20053;-68
2024/01/08 13:07:17;;;;;;;22.02;14.98;;;;;;;;;;5057214;28;20029;-69
2024/01/08 13:09:43;;;;;;;69.22;42.70;;;;;;;;;;5074967;28;20047;-68
2024/01/08 13:12:09;;;;;;;46.53;27.00;;;;;;;;;;5074280;28;20025;-68
2024/01/08 13:14:34;;;;;;;54.22;31.65;;;;;;;;;;5074222;28;20041;-68
2024/01/08 13:16:59;;;;;;;16.63;11.73;;;;;;;;;;5074780;28;20025;-69
2024/01/08 13:19:25;;;;;;;85.60;50.83;;;;;;;;;;5040297;28;20028;-68
2024/01/08 13:21:50;;;;;;;54.35;34.33;;;;;;;;;;5074827;28;20493;-68
2024/01/08 13:24:19;;;;;;;32.83;21.48;;;;;;;;;;5074076;28;20524;-68
2024/01/08 13:26:47;;;;;;;19.65;12.93;;;;;;;;;;5067735;28;20033;-67
2024/01/08 13:29:14;;;;;;;22.98;14.63;;;;;;;;;;5047649;28;20528;-67
2024/01/08 13:31:39;;;;;;;17.58;12.55;;;;;;;;;;5068171;28;20025;-64
2024/01/08 13:34:06;;;;;;;51.28;28.98;;;;;;;;;;5042839;28;20032;-64
2024/01/08 13:36:35;;;;;;;28.30;17.35;;;;;;;;;;5070753;28;20023;-62
2024/01/08 13:39:00;;;;;;;59.15;33.38;;;;;;;;;;5040197;28;20029;-63
2024/01/08 13:41:26;;;;;;;27.20;15.20;;;;;;;;;;5052775;28;20382;-63
2024/01/08 13:43:52;;;;;;;26.38;14.65;;;;;;;;;;5073811;28;20158;-64
2024/01/08 13:46:17;;;;;;;32.58;18.65;;;;;;;;;;5072350;28;20031;-64
2024/01/08 13:48:42;;;;;;;55.83;31.58;;;;;;;;;;5073472;28;20028;-62
2024/01/08 13:51:12;;;;;;;97.45;54.00;;;;;;;;;;5072746;28;20013;-69
2024/01/08 13:53:39;;;;;;;66.60;40.55;;;;;;;;;;5072752;28;20024;-69
2024/01/08 13:56:05;;;;;;;91.40;46.22;;;;;;;;;;5072857;28;20060;-70
2024/01/08 13:58:31;;;;;;;178.43;89.53;;;;;;;;;;5072895;28;20428;-70
2024/01/08 14:00:57;;;;;;;156.18;74.47;;;;;;;;;;5072944;28;20103;-70
2024/01/08 14:03:22;;;;;;;38.10;20.88;;;;;;;;;;5072837;28;20040;-70
2024/01/08 14:05:48;;;;;;;26.50;17.20;;;;;;;;;;5072962;28;20044;-64
2024/01/08 14:08:14;;;;;;;211.60;86.93;;;;;;;;;;5073824;28;20028;-62
2024/01/08 14:10:39;;;;;;;173.68;76.38;;;;;;;;;;5073812;28;20036;-63
2024/01/08 14:13:05;;;;;;;152.60;65.78;;;;;;;;;;5055593;28;20032;-63
2024/01/08 14:15:30;;;;;;;51.60;32.22;;;;;;;;;;5055420;28;20040;-63
2024/01/08 14:17:59;;;;;;;49.40;29.33;;;;;;;;;;5038965;28;20024;-64
2024/01/08 14:20:25;;;;;;;66.75;34.50;;;;;;;;;;5073638;28;20032;-63
2024/01/08 14:22:50;;;;;;;26.67;17.92;;;;;;;;;;5055744;28;20071;-64